sensor_id;sensor_type;location;lat;lon;timestamp;P1;durP1;ratioP1;P2;durP2;ratioP2
26946;SDS011;14501;52.282;10.560;2022-12-18T00:00:28;45.90;;;22.80;;
26946;SDS011;14501;52.282;10.560;2022-12-18T00:02:55;39.88;;;22.30;;
26946;SDS011;14501;52.282;10.560;2022-12-18T00:05:20;46.95;;;23.23;;
26946;SDS011;14501;52.282;10.560;2022-12-18T00:07:46;43.50;;;21.45;;
26946;SDS011;14501;52.282;10.560;2022-12-18T00:10:11;46.05;;;22.75;;
26946;SDS011;14501;52.282;10.560;2022-12-18T00:12:37;44.50;;;23.52;;
26946;SDS011;14501;52.282;10.560;2022-12-18T00:15:03;43.33;;;22.45;;
26946;SDS011;14501;52.282;10.560;2022-12-18T00:17:28;43.63;;;23.67;;
26946;SDS011;14501;52.282;10.560;2022-12-18T00:19:54;43.47;;;20.52;;
26946;SDS011;14501;52.282;10.560;2022-12-18T00:22:19;42.45;;;21.73;;
26946;SDS011;14501;52.282;10.560;2022-12-18T00:24:45;41.70;;;20.90;;
26946;SDS011;14501;52.282;10.560;2022-12-18T00:27:11;40.22;;;20.45;;
26946;SDS011;14501;52.282;10.560;2022-12-18T00:29:36;41.17;;;20.70;;
26946;SDS011;14501;52.282;10.560;2022-12-18T00:32:02;43.03;;;21.02;;
26946;SDS011;14501;52.282;10.560;2022-12-18T00:34:27;39.78;;;20.77;;
26946;SDS011;14501;52.282;10.560;2022-12-18T00:36:53;43.15;;;21.73;;
26946;SDS011;14501;52.282;10.560;2022-12-18T00:39:18;43.33;;;19.92;;
26946;SDS011;14501;52.282;10.560;2022-12-18T00:41:44;40.05;;;20.30;;
26946;SDS011;14501;52.282;10.560;2022-12-18T00:44:28;40.38;;;19.48;;
26946;SDS011;14501;52.282;10.560;2022-12-18T00:46:54;45.28;;;20.38;;
26946;SDS011;14501;52.282;10.560;2022-12-18T00:49:20;40.75;;;21.60;;
26946;SDS011;14501;52.282;10.560;2022-12-18T00:51:45;38.58;;;20.52;;
26946;SDS011;14501;52.282;10.560;2022-12-18T00:54:11;40.17;;;20.05;;
26946;SDS011;14501;52.282;10.560;2022-12-18T00:56:38;37.10;;;20.55;;
26946;SDS011;14501;52.282;10.560;2022-12-18T00:59:04;44.25;;;21.40;;
26946;SDS011;14501;52.282;10.560;2022-12-18T01:01:30;41.25;;;21.33;;
26946;SDS011;14501;52.282;10.560;2022-12-18T01:03:56;40.05;;;19.42;;
26946;SDS011;14501;52.282;10.560;2022-12-18T01:06:21;38.17;;;18.95;;
26946;SDS011;14501;52.282;10.560;2022-12-18T01:08:47;40.97;;;21.05;;
26946;SDS011;14501;52.282;10.560;2022-12-18T01:11:17;40.17;;;20.17;;
26946;SDS011;14501;52.282;10.560;2022-12-18T01:13:44;44.35;;;21.00;;
26946;SDS011;14501;52.282;10.560;2022-12-18T01:16:13;44.50;;;22.35;;
26946;SDS011;14501;52.282;10.560;2022-12-18T01:18:40;43.65;;;20.52;;
26946;SDS011;14501;52.282;10.560;2022-12-18T01:21:07;43.10;;;20.80;;
26946;SDS011;14501;52.282;10.560;2022-12-18T01:23:34;40.70;;;20.60;;
26946;SDS011;14501;52.282;10.560;2022-12-18T01:26:13;45.90;;;21.02;;
26946;SDS011;14501;52.282;10.560;2022-12-18T01:28:40;42.63;;;20.67;;
26946;SDS011;14501;52.282;10.560;2022-12-18T01:31:17;42.22;;;20.33;;
26946;SDS011;14501;52.282;10.560;2022-12-18T01:33:44;45.63;;;21.75;;
26946;SDS011;14501;52.282;10.560;2022-12-18T01:36:18;42.40;;;21.92;;
26946;SDS011;14501;52.282;10.560;2022-12-18T01:38:48;40.92;;;20.65;;
26946;SDS011;14501;52.282;10.560;2022-12-18T01:41:15;42.35;;;21.02;;
26946;SDS011;14501;52.282;10.560;2022-12-18T01:43:46;45.83;;;20.30;;
26946;SDS011;14501;52.282;10.560;2022-12-18T01:46:16;39.13;;;20.00;;
26946;SDS011;14501;52.282;10.560;2022-12-18T01:48:43;40.42;;;20.13;;
26946;SDS011;14501;52.282;10.560;2022-12-18T01:51:11;37.70;;;19.08;;
26946;SDS011;14501;52.282;10.560;2022-12-18T01:53:38;43.75;;;21.02;;
26946;SDS011;14501;52.282;10.560;2022-12-18T01:56:05;37.60;;;20.63;;
26946;SDS011;14501;52.282;10.560;2022-12-18T02:01:11;37.63;;;18.92;;
26946;SDS011;14501;52.282;10.560;2022-12-18T02:03:37;43.90;;;20.95;;
26946;SDS011;14501;52.282;10.560;2022-12-18T02:08:43;48.22;;;22.88;;
26946;SDS011;14501;52.282;10.560;2022-12-18T02:11:53;50.17;;;22.23;;
26946;SDS011;14501;52.282;10.560;2022-12-18T02:14:38;47.97;;;22.00;;
26946;SDS011;14501;52.282;10.560;2022-12-18T02:28:07;43.20;;;20.75;;
26946;SDS011;14501;52.282;10.560;2022-12-18T02:30:36;45.13;;;22.92;;
26946;SDS011;14501;52.282;10.560;2022-12-18T02:33:04;42.35;;;20.13;;
26946;SDS011;14501;52.282;10.560;2022-12-18T02:35:31;41.78;;;21.05;;
26946;SDS011;14501;52.282;10.560;2022-12-18T02:37:59;38.08;;;20.33;;
26946;SDS011;14501;52.282;10.560;2022-12-18T02:40:26;39.88;;;19.33;;
26946;SDS011;14501;52.282;10.560;2022-12-18T02:42:53;42.88;;;19.65;;
26946;SDS011;14501;52.282;10.560;2022-12-18T02:45:18;48.47;;;22.25;;
26946;SDS011;14501;52.282;10.560;2022-12-18T02:47:45;47.47;;;20.13;;
26946;SDS011;14501;52.282;10.560;2022-12-18T02:53:09;45.63;;;22.20;;
26946;SDS011;14501;52.282;10.560;2022-12-18T02:56:06;43.85;;;20.63;;
26946;SDS011;14501;52.282;10.560;2022-12-18T03:04:08;41.38;;;20.27;;
26946;SDS011;14501;52.282;10.560;2022-12-18T03:06:40;38.17;;;20.02;;
26946;SDS011;14501;52.282;10.560;2022-12-18T03:09:10;44.03;;;20.20;;
26946;SDS011;14501;52.282;10.560;2022-12-18T03:11:40;41.85;;;20.05;;
26946;SDS011;14501;52.282;10.560;2022-12-18T03:14:29;40.22;;;19.70;;
26946;SDS011;14501;52.282;10.560;2022-12-18T03:17:00;36.75;;;18.55;;
26946;SDS011;14501;52.282;10.560;2022-12-18T03:19:29;44.50;;;20.13;;
26946;SDS011;14501;52.282;10.560;2022-12-18T03:21:57;43.05;;;19.35;;
26946;SDS011;14501;52.282;10.560;2022-12-18T03:24:27;37.67;;;19.52;;
26946;SDS011;14501;52.282;10.560;2022-12-18T03:26:58;34.97;;;16.13;;
26946;SDS011;14501;52.282;10.560;2022-12-18T03:29:28;40.22;;;18.58;;
26946;SDS011;14501;52.282;10.560;2022-12-18T03:32:01;41.47;;;19.38;;
26946;SDS011;14501;52.282;10.560;2022-12-18T03:34:33;43.55;;;19.20;;
26946;SDS011;14501;52.282;10.560;2022-12-18T03:37:02;35.90;;;17.92;;
26946;SDS011;14501;52.282;10.560;2022-12-18T03:39:28;45.10;;;19.15;;
26946;SDS011;14501;52.282;10.560;2022-12-18T03:48:00;39.53;;;19.70;;
26946;SDS011;14501;52.282;10.560;2022-12-18T03:55:46;40.72;;;18.73;;
26946;SDS011;14501;52.282;10.560;2022-12-18T03:58:13;38.67;;;19.83;;
26946;SDS011;14501;52.282;10.560;2022-12-18T04:00:43;37.95;;;18.33;;
26946;SDS011;14501;52.282;10.560;2022-12-18T04:03:09;39.30;;;19.30;;
26946;SDS011;14501;52.282;10.560;2022-12-18T04:05:36;34.28;;;18.27;;
26946;SDS011;14501;52.282;10.560;2022-12-18T04:08:03;43.15;;;19.80;;
26946;SDS011;14501;52.282;10.560;2022-12-18T04:10:30;38.03;;;17.70;;
26946;SDS011;14501;52.282;10.560;2022-12-18T04:12:56;39.90;;;17.73;;
26946;SDS011;14501;52.282;10.560;2022-12-18T04:15:22;37.38;;;16.92;;
26946;SDS011;14501;52.282;10.560;2022-12-18T04:17:49;38.30;;;18.80;;
26946;SDS011;14501;52.282;10.560;2022-12-18T04:20:15;34.10;;;18.05;;
26946;SDS011;14501;52.282;10.560;2022-12-18T04:22:41;34.53;;;18.63;;
26946;SDS011;14501;52.282;10.560;2022-12-18T04:25:07;37.47;;;18.17;;
26946;SDS011;14501;52.282;10.560;2022-12-18T04:27:33;35.55;;;18.48;;
26946;SDS011;14501;52.282;10.560;2022-12-18T04:29:59;38.47;;;19.55;;
26946;SDS011;14501;52.282;10.560;2022-12-18T04:32:24;36.70;;;17.38;;
26946;SDS011;14501;52.282;10.560;2022-12-18T04:34:50;40.50;;;18.55;;
26946;SDS011;14501;52.282;10.560;2022-12-18T04:37:16;40.15;;;19.13;;
26946;SDS011;14501;52.282;10.560;2022-12-18T04:39:41;36.17;;;18.25;;
26946;SDS011;14501;52.282;10.560;2022-12-18T04:42:07;38.97;;;18.88;;
26946;SDS011;14501;52.282;10.560;2022-12-18T04:44:32;41.70;;;20.25;;
26946;SDS011;14501;52.282;10.560;2022-12-18T04:46:58;38.45;;;18.50;;
26946;SDS011;14501;52.282;10.560;2022-12-18T04:49:23;38.20;;;18.90;;
26946;SDS011;14501;52.282;10.560;2022-12-18T04:51:49;36.13;;;17.90;;
26946;SDS011;14501;52.282;10.560;2022-12-18T04:54:15;39.70;;;17.38;;
26946;SDS011;14501;52.282;10.560;2022-12-18T04:56:40;39.60;;;18.48;;
26946;SDS011;14501;52.282;10.560;2022-12-18T04:59:06;37.97;;;17.52;;
26946;SDS011;14501;52.282;10.560;2022-12-18T05:01:35;41.00;;;17.85;;
26946;SDS011;14501;52.282;10.560;2022-12-18T05:04:01;43.72;;;18.27;;
26946;SDS011;14501;52.282;10.560;2022-12-18T05:06:27;46.05;;;20.33;;
26946;SDS011;14501;52.282;10.560;2022-12-18T05:08:53;43.17;;;19.77;;
26946;SDS011;14501;52.282;10.560;2022-12-18T05:11:18;37.83;;;18.52;;
26946;SDS011;14501;52.282;10.560;2022-12-18T05:13:44;44.63;;;17.08;;
26946;SDS011;14501;52.282;10.560;2022-12-18T05:16:10;47.92;;;20.30;;
26946;SDS011;14501;52.282;10.560;2022-12-18T05:18:36;42.50;;;19.35;;
26946;SDS011;14501;52.282;10.560;2022-12-18T05:21:02;42.70;;;19.63;;
26946;SDS011;14501;52.282;10.560;2022-12-18T05:23:28;41.45;;;18.27;;
26946;SDS011;14501;52.282;10.560;2022-12-18T05:26:01;38.42;;;18.85;;
26946;SDS011;14501;52.282;10.560;2022-12-18T05:28:29;39.53;;;19.23;;
26946;SDS011;14501;52.282;10.560;2022-12-18T05:30:57;50.85;;;21.45;;
26946;SDS011;14501;52.282;10.560;2022-12-18T05:33:24;38.83;;;18.67;;
26946;SDS011;14501;52.282;10.560;2022-12-18T05:35:52;45.13;;;20.25;;
26946;SDS011;14501;52.282;10.560;2022-12-18T05:38:20;39.72;;;20.65;;
26946;SDS011;14501;52.282;10.560;2022-12-18T05:40:47;41.80;;;18.63;;
26946;SDS011;14501;52.282;10.560;2022-12-18T05:43:13;44.40;;;18.70;;
26946;SDS011;14501;52.282;10.560;2022-12-18T05:45:39;51.35;;;20.17;;
26946;SDS011;14501;52.282;10.560;2022-12-18T05:48:06;43.13;;;20.05;;
26946;SDS011;14501;52.282;10.560;2022-12-18T05:50:35;50.53;;;21.35;;
26946;SDS011;14501;52.282;10.560;2022-12-18T05:53:02;43.95;;;20.20;;
26946;SDS011;14501;52.282;10.560;2022-12-18T05:55:29;37.80;;;18.90;;
26946;SDS011;14501;52.282;10.560;2022-12-18T05:57:54;38.65;;;18.30;;
26946;SDS011;14501;52.282;10.560;2022-12-18T06:00:20;41.28;;;19.52;;
26946;SDS011;14501;52.282;10.560;2022-12-18T06:02:46;42.17;;;18.55;;
26946;SDS011;14501;52.282;10.560;2022-12-18T06:05:12;41.65;;;19.25;;
26946;SDS011;14501;52.282;10.560;2022-12-18T06:07:38;42.53;;;17.40;;
26946;SDS011;14501;52.282;10.560;2022-12-18T06:10:05;43.63;;;17.83;;
26946;SDS011;14501;52.282;10.560;2022-12-18T06:12:31;35.42;;;16.90;;
26946;SDS011;14501;52.282;10.560;2022-12-18T06:14:58;43.72;;;17.48;;
26946;SDS011;14501;52.282;10.560;2022-12-18T06:17:27;41.78;;;18.20;;
26946;SDS011;14501;52.282;10.560;2022-12-18T06:19:56;40.53;;;17.13;;
26946;SDS011;14501;52.282;10.560;2022-12-18T06:22:22;40.50;;;17.23;;
26946;SDS011;14501;52.282;10.560;2022-12-18T06:24:48;38.60;;;17.90;;
26946;SDS011;14501;52.282;10.560;2022-12-18T06:27:14;37.70;;;17.15;;
26946;SDS011;14501;52.282;10.560;2022-12-18T06:29:40;41.30;;;17.88;;
26946;SDS011;14501;52.282;10.560;2022-12-18T06:32:06;39.85;;;16.73;;
26946;SDS011;14501;52.282;10.560;2022-12-18T06:34:32;30.77;;;14.93;;
26946;SDS011;14501;52.282;10.560;2022-12-18T06:36:58;31.25;;;16.60;;
26946;SDS011;14501;52.282;10.560;2022-12-18T06:39:24;44.15;;;16.42;;
26946;SDS011;14501;52.282;10.560;2022-12-18T06:41:52;39.33;;;17.00;;
26946;SDS011;14501;52.282;10.560;2022-12-18T06:44:18;38.95;;;16.73;;
26946;SDS011;14501;52.282;10.560;2022-12-18T06:46:43;36.03;;;16.23;;
26946;SDS011;14501;52.282;10.560;2022-12-18T06:49:09;35.30;;;15.43;;
26946;SDS011;14501;52.282;10.560;2022-12-18T06:51:35;33.70;;;15.52;;
26946;SDS011;14501;52.282;10.560;2022-12-18T06:54:01;35.58;;;16.08;;
26946;SDS011;14501;52.282;10.560;2022-12-18T06:56:27;37.80;;;16.40;;
26946;SDS011;14501;52.282;10.560;2022-12-18T06:58:53;35.55;;;16.23;;
26946;SDS011;14501;52.282;10.560;2022-12-18T07:01:20;40.90;;;17.75;;
26946;SDS011;14501;52.282;10.560;2022-12-18T07:03:46;39.17;;;17.40;;
26946;SDS011;14501;52.282;10.560;2022-12-18T07:06:13;40.53;;;18.92;;
26946;SDS011;14501;52.282;10.560;2022-12-18T07:08:40;36.67;;;17.58;;
26946;SDS011;14501;52.282;10.560;2022-12-18T07:11:05;42.47;;;18.60;;
26946;SDS011;14501;52.282;10.560;2022-12-18T07:13:31;38.28;;;17.67;;
26946;SDS011;14501;52.282;10.560;2022-12-18T07:16:07;44.50;;;18.73;;
26946;SDS011;14501;52.282;10.560;2022-12-18T07:18:35;42.50;;;18.52;;
26946;SDS011;14501;52.282;10.560;2022-12-18T07:21:07;39.03;;;18.10;;
26946;SDS011;14501;52.282;10.560;2022-12-18T07:23:36;40.15;;;19.38;;
26946;SDS011;14501;52.282;10.560;2022-12-18T07:26:06;44.42;;;19.50;;
26946;SDS011;14501;52.282;10.560;2022-12-18T07:28:34;46.80;;;20.02;;
26946;SDS011;14501;52.282;10.560;2022-12-18T07:31:04;41.80;;;18.55;;
26946;SDS011;14501;52.282;10.560;2022-12-18T07:33:31;48.63;;;18.13;;
26946;SDS011;14501;52.282;10.560;2022-12-18T07:36:01;47.90;;;20.70;;
26946;SDS011;14501;52.282;10.560;2022-12-18T07:38:29;46.25;;;19.25;;
26946;SDS011;14501;52.282;10.560;2022-12-18T07:41:05;37.47;;;18.25;;
26946;SDS011;14501;52.282;10.560;2022-12-18T07:43:33;47.75;;;19.85;;
26946;SDS011;14501;52.282;10.560;2022-12-18T07:45:59;46.38;;;19.45;;
26946;SDS011;14501;52.282;10.560;2022-12-18T07:48:25;52.40;;;19.00;;
26946;SDS011;14501;52.282;10.560;2022-12-18T07:50:50;45.15;;;19.88;;
26946;SDS011;14501;52.282;10.560;2022-12-18T07:53:16;41.90;;;19.00;;
26946;SDS011;14501;52.282;10.560;2022-12-18T07:55:41;47.20;;;19.23;;
26946;SDS011;14501;52.282;10.560;2022-12-18T07:58:07;43.75;;;20.08;;
26946;SDS011;14501;52.282;10.560;2022-12-18T08:00:33;46.30;;;21.10;;
26946;SDS011;14501;52.282;10.560;2022-12-18T08:02:59;40.95;;;19.50;;
26946;SDS011;14501;52.282;10.560;2022-12-18T08:05:25;43.38;;;18.05;;
26946;SDS011;14501;52.282;10.560;2022-12-18T08:07:51;44.80;;;19.23;;
26946;SDS011;14501;52.282;10.560;2022-12-18T08:10:17;40.13;;;18.67;;
26946;SDS011;14501;52.282;10.560;2022-12-18T08:12:42;47.58;;;18.38;;
26946;SDS011;14501;52.282;10.560;2022-12-18T08:15:08;39.65;;;17.65;;
26946;SDS011;14501;52.282;10.560;2022-12-18T08:17:34;35.42;;;17.02;;
26946;SDS011;14501;52.282;10.560;2022-12-18T08:19:59;38.35;;;17.10;;
26946;SDS011;14501;52.282;10.560;2022-12-18T08:22:25;44.28;;;18.42;;
26946;SDS011;14501;52.282;10.560;2022-12-18T08:24:51;41.42;;;18.00;;
26946;SDS011;14501;52.282;10.560;2022-12-18T08:27:17;38.10;;;18.38;;
26946;SDS011;14501;52.282;10.560;2022-12-18T08:29:43;38.42;;;18.55;;
26946;SDS011;14501;52.282;10.560;2022-12-18T08:32:08;37.53;;;17.27;;
26946;SDS011;14501;52.282;10.560;2022-12-18T08:34:34;43.38;;;17.90;;
26946;SDS011;14501;52.282;10.560;2022-12-18T08:37:01;38.53;;;16.25;;
26946;SDS011;14501;52.282;10.560;2022-12-18T08:39:27;35.28;;;17.08;;
26946;SDS011;14501;52.282;10.560;2022-12-18T08:41:52;36.63;;;17.67;;
26946;SDS011;14501;52.282;10.560;2022-12-18T08:44:37;34.50;;;15.88;;
26946;SDS011;14501;52.282;10.560;2022-12-18T08:47:02;35.65;;;16.52;;
26946;SDS011;14501;52.282;10.560;2022-12-18T08:49:28;36.20;;;17.35;;
26946;SDS011;14501;52.282;10.560;2022-12-18T08:51:54;31.23;;;14.98;;
26946;SDS011;14501;52.282;10.560;2022-12-18T08:54:22;30.27;;;14.63;;
26946;SDS011;14501;52.282;10.560;2022-12-18T08:56:48;39.65;;;15.93;;
26946;SDS011;14501;52.282;10.560;2022-12-18T08:59:15;36.75;;;17.58;;
26946;SDS011;14501;52.282;10.560;2022-12-18T09:01:41;33.60;;;16.10;;
26946;SDS011;14501;52.282;10.560;2022-12-18T09:04:08;29.27;;;14.60;;
26946;SDS011;14501;52.282;10.560;2022-12-18T09:06:34;32.65;;;15.15;;
26946;SDS011;14501;52.282;10.560;2022-12-18T09:09:00;30.48;;;15.68;;
26946;SDS011;14501;52.282;10.560;2022-12-18T09:11:27;29.50;;;13.57;;
26946;SDS011;14501;52.282;10.560;2022-12-18T09:13:54;27.88;;;15.10;;
26946;SDS011;14501;52.282;10.560;2022-12-18T09:16:20;27.70;;;14.13;;
26946;SDS011;14501;52.282;10.560;2022-12-18T09:18:47;30.80;;;14.88;;
26946;SDS011;14501;52.282;10.560;2022-12-18T09:21:17;29.55;;;13.90;;
26946;SDS011;14501;52.282;10.560;2022-12-18T09:23:48;29.48;;;15.27;;
26946;SDS011;14501;52.282;10.560;2022-12-18T09:26:15;27.35;;;15.38;;
26946;SDS011;14501;52.282;10.560;2022-12-18T09:28:40;27.92;;;14.05;;
26946;SDS011;14501;52.282;10.560;2022-12-18T09:31:06;27.45;;;15.02;;
26946;SDS011;14501;52.282;10.560;2022-12-18T09:33:36;28.77;;;15.57;;
26946;SDS011;14501;52.282;10.560;2022-12-18T09:36:04;29.25;;;15.27;;
26946;SDS011;14501;52.282;10.560;2022-12-18T09:38:32;26.98;;;14.63;;
26946;SDS011;14501;52.282;10.560;2022-12-18T09:41:45;27.52;;;14.60;;
26946;SDS011;14501;52.282;10.560;2022-12-18T09:43:54;25.38;;;13.23;;
26946;SDS011;14501;52.282;10.560;2022-12-18T09:46:27;30.90;;;14.52;;
26946;SDS011;14501;52.282;10.560;2022-12-18T09:48:56;27.60;;;15.55;;
26946;SDS011;14501;52.282;10.560;2022-12-18T09:51:39;26.73;;;14.88;;
26946;SDS011;14501;52.282;10.560;2022-12-18T09:54:10;30.27;;;15.07;;
26946;SDS011;14501;52.282;10.560;2022-12-18T09:56:40;32.47;;;15.38;;
26946;SDS011;14501;52.282;10.560;2022-12-18T09:59:30;26.35;;;13.93;;
26946;SDS011;14501;52.282;10.560;2022-12-18T10:02:20;25.83;;;12.98;;
26946;SDS011;14501;52.282;10.560;2022-12-18T10:04:58;28.63;;;14.93;;
26946;SDS011;14501;52.282;10.560;2022-12-18T10:08:17;27.55;;;13.93;;
26946;SDS011;14501;52.282;10.560;2022-12-18T10:18:53;27.92;;;13.43;;
26946;SDS011;14501;52.282;10.560;2022-12-18T10:21:32;28.02;;;12.98;;
26946;SDS011;14501;52.282;10.560;2022-12-18T10:26:44;25.55;;;13.75;;
26946;SDS011;14501;52.282;10.560;2022-12-18T10:29:11;27.67;;;13.52;;
26946;SDS011;14501;52.282;10.560;2022-12-18T10:31:38;26.23;;;12.77;;
26946;SDS011;14501;52.282;10.560;2022-12-18T10:34:03;26.63;;;13.38;;
26946;SDS011;14501;52.282;10.560;2022-12-18T10:36:29;26.73;;;13.88;;
26946;SDS011;14501;52.282;10.560;2022-12-18T10:39:03;24.77;;;12.60;;
26946;SDS011;14501;52.282;10.560;2022-12-18T10:41:49;24.98;;;13.32;;
26946;SDS011;14501;52.282;10.560;2022-12-18T10:44:16;27.77;;;13.98;;
26946;SDS011;14501;52.282;10.560;2022-12-18T10:46:44;28.10;;;13.95;;
26946;SDS011;14501;52.282;10.560;2022-12-18T10:49:19;30.42;;;12.98;;
26946;SDS011;14501;52.282;10.560;2022-12-18T10:52:07;26.23;;;13.65;;
26946;SDS011;14501;52.282;10.560;2022-12-18T10:54:54;30.30;;;14.10;;
26946;SDS011;14501;52.282;10.560;2022-12-18T10:57:39;27.90;;;14.05;;
26946;SDS011;14501;52.282;10.560;2022-12-18T11:02:54;27.48;;;13.80;;
26946;SDS011;14501;52.282;10.560;2022-12-18T11:07:57;21.35;;;12.75;;
26946;SDS011;14501;52.282;10.560;2022-12-18T11:10:33;25.25;;;13.50;;
26946;SDS011;14501;52.282;10.560;2022-12-18T11:13:11;28.05;;;14.13;;
26946;SDS011;14501;52.282;10.560;2022-12-18T11:15:42;24.02;;;13.55;;
26946;SDS011;14501;52.282;10.560;2022-12-18T11:18:15;29.60;;;13.80;;
26946;SDS011;14501;52.282;10.560;2022-12-18T11:20:51;28.13;;;14.23;;
26946;SDS011;14501;52.282;10.560;2022-12-18T11:23:20;24.13;;;13.38;;
26946;SDS011;14501;52.282;10.560;2022-12-18T11:25:59;26.88;;;14.18;;
26946;SDS011;14501;52.282;10.560;2022-12-18T11:31:12;24.73;;;13.25;;
26946;SDS011;14501;52.282;10.560;2022-12-18T11:33:59;23.98;;;12.60;;
26946;SDS011;14501;52.282;10.560;2022-12-18T11:36:47;24.88;;;14.38;;
26946;SDS011;14501;52.282;10.560;2022-12-18T11:39:35;27.13;;;14.13;;
26946;SDS011;14501;52.282;10.560;2022-12-18T11:42:10;24.00;;;13.65;;
26946;SDS011;14501;52.282;10.560;2022-12-18T11:44:52;26.08;;;13.77;;
26946;SDS011;14501;52.282;10.560;2022-12-18T11:50:38;28.17;;;15.65;;
26946;SDS011;14501;52.282;10.560;2022-12-18T11:53:10;25.83;;;14.52;;
26946;SDS011;14501;52.282;10.560;2022-12-18T11:55:38;30.15;;;15.43;;
26946;SDS011;14501;52.282;10.560;2022-12-18T11:58:23;27.67;;;15.18;;
26946;SDS011;14501;52.282;10.560;2022-12-18T12:04:00;23.50;;;13.50;;
26946;SDS011;14501;52.282;10.560;2022-12-18T12:12:17;24.67;;;14.35;;
26946;SDS011;14501;52.282;10.560;2022-12-18T12:25:14;21.60;;;11.93;;
26946;SDS011;14501;52.282;10.560;2022-12-18T12:30:33;20.83;;;11.63;;
26946;SDS011;14501;52.282;10.560;2022-12-18T12:41:12;20.55;;;11.02;;
26946;SDS011;14501;52.282;10.560;2022-12-18T12:43:58;19.23;;;11.15;;
26946;SDS011;14501;52.282;10.560;2022-12-18T12:46:27;20.40;;;10.40;;
26946;SDS011;14501;52.282;10.560;2022-12-18T12:49:19;17.52;;;9.70;;
26946;SDS011;14501;52.282;10.560;2022-12-18T12:51:47;16.55;;;9.82;;
26946;SDS011;14501;52.282;10.560;2022-12-18T12:54:23;21.80;;;10.90;;
26946;SDS011;14501;52.282;10.560;2022-12-18T13:00:04;18.95;;;10.98;;
26946;SDS011;14501;52.282;10.560;2022-12-18T13:05:08;20.48;;;11.32;;
26946;SDS011;14501;52.282;10.560;2022-12-18T13:07:51;20.77;;;11.68;;
26946;SDS011;14501;52.282;10.560;2022-12-18T13:10:25;22.38;;;11.85;;
26946;SDS011;14501;52.282;10.560;2022-12-18T13:13:14;19.15;;;11.40;;
26946;SDS011;14501;52.282;10.560;2022-12-18T13:18:19;21.02;;;11.15;;
26946;SDS011;14501;52.282;10.560;2022-12-18T13:20:47;20.55;;;11.75;;
26946;SDS011;14501;52.282;10.560;2022-12-18T13:24:13;19.58;;;11.30;;
26946;SDS011;14501;52.282;10.560;2022-12-18T13:31:13;15.90;;;10.18;;
26946;SDS011;14501;52.282;10.560;2022-12-18T13:38:40;18.92;;;9.85;;
26946;SDS011;14501;52.282;10.560;2022-12-18T13:43:43;14.80;;;9.60;;
26946;SDS011;14501;52.282;10.560;2022-12-18T13:46:31;16.02;;;8.88;;
26946;SDS011;14501;52.282;10.560;2022-12-18T13:51:39;14.85;;;8.20;;
26946;SDS011;14501;52.282;10.560;2022-12-18T13:57:05;14.93;;;7.82;;
26946;SDS011;14501;52.282;10.560;2022-12-18T13:59:53;15.38;;;8.48;;
26946;SDS011;14501;52.282;10.560;2022-12-18T14:02:26;13.63;;;8.32;;
26946;SDS011;14501;52.282;10.560;2022-12-18T14:04:53;21.08;;;10.43;;
26946;SDS011;14501;52.282;10.560;2022-12-18T14:07:23;19.85;;;10.88;;
26946;SDS011;14501;52.282;10.560;2022-12-18T14:09:59;24.25;;;11.48;;
26946;SDS011;14501;52.282;10.560;2022-12-18T14:12:32;22.00;;;11.20;;
26946;SDS011;14501;52.282;10.560;2022-12-18T14:15:30;23.00;;;13.02;;
26946;SDS011;14501;52.282;10.560;2022-12-18T14:20:24;21.13;;;12.00;;
26946;SDS011;14501;52.282;10.560;2022-12-18T14:22:52;25.17;;;11.57;;
26946;SDS011;14501;52.282;10.560;2022-12-18T14:25:19;24.27;;;12.13;;
26946;SDS011;14501;52.282;10.560;2022-12-18T14:27:50;22.00;;;12.10;;
26946;SDS011;14501;52.282;10.560;2022-12-18T14:30:29;19.30;;;12.13;;
26946;SDS011;14501;52.282;10.560;2022-12-18T14:33:01;19.98;;;13.07;;
26946;SDS011;14501;52.282;10.560;2022-12-18T14:35:27;22.08;;;12.68;;
26946;SDS011;14501;52.282;10.560;2022-12-18T14:37:53;26.33;;;13.43;;
26946;SDS011;14501;52.282;10.560;2022-12-18T14:40:32;25.77;;;13.23;;
26946;SDS011;14501;52.282;10.560;2022-12-18T14:42:58;18.10;;;11.38;;
26946;SDS011;14501;52.282;10.560;2022-12-18T14:45:40;20.70;;;12.02;;
26946;SDS011;14501;52.282;10.560;2022-12-18T14:50:36;19.42;;;11.45;;
26946;SDS011;14501;52.282;10.560;2022-12-18T14:53:02;20.23;;;10.57;;
26946;SDS011;14501;52.282;10.560;2022-12-18T14:55:28;22.23;;;11.38;;
26946;SDS011;14501;52.282;10.560;2022-12-18T14:57:54;21.73;;;12.05;;
26946;SDS011;14501;52.282;10.560;2022-12-18T15:00:22;19.98;;;10.82;;
26946;SDS011;14501;52.282;10.560;2022-12-18T15:02:54;19.42;;;9.93;;
26946;SDS011;14501;52.282;10.560;2022-12-18T15:05:28;20.92;;;10.93;;
26946;SDS011;14501;52.282;10.560;2022-12-18T15:07:57;18.30;;;10.25;;
26946;SDS011;14501;52.282;10.560;2022-12-18T15:10:31;20.35;;;11.60;;
26946;SDS011;14501;52.282;10.560;2022-12-18T15:23:14;20.58;;;10.73;;
26946;SDS011;14501;52.282;10.560;2022-12-18T15:25:40;17.42;;;10.02;;
26946;SDS011;14501;52.282;10.560;2022-12-18T15:33:37;23.42;;;11.55;;
26946;SDS011;14501;52.282;10.560;2022-12-18T15:36:29;20.20;;;10.32;;
26946;SDS011;14501;52.282;10.560;2022-12-18T15:38:55;19.52;;;10.48;;
26946;SDS011;14501;52.282;10.560;2022-12-18T15:41:22;20.08;;;11.07;;
26946;SDS011;14501;52.282;10.560;2022-12-18T15:43:50;21.17;;;12.15;;
26946;SDS011;14501;52.282;10.560;2022-12-18T15:46:20;23.90;;;12.18;;
26946;SDS011;14501;52.282;10.560;2022-12-18T15:48:48;19.08;;;10.88;;
26946;SDS011;14501;52.282;10.560;2022-12-18T15:51:22;18.75;;;11.43;;
26946;SDS011;14501;52.282;10.560;2022-12-18T15:53:49;17.45;;;10.68;;
26946;SDS011;14501;52.282;10.560;2022-12-18T15:56:18;19.80;;;12.15;;
26946;SDS011;14501;52.282;10.560;2022-12-18T15:59:04;23.20;;;14.43;;
26946;SDS011;14501;52.282;10.560;2022-12-18T16:01:37;29.95;;;15.65;;
26946;SDS011;14501;52.282;10.560;2022-12-18T16:04:02;35.00;;;18.52;;
26946;SDS011;14501;52.282;10.560;2022-12-18T16:06:28;78.50;;;34.28;;
26946;SDS011;14501;52.282;10.560;2022-12-18T16:08:54;38.28;;;20.73;;
26946;SDS011;14501;52.282;10.560;2022-12-18T16:11:21;35.10;;;16.85;;
26946;SDS011;14501;52.282;10.560;2022-12-18T16:14:03;25.17;;;13.60;;
26946;SDS011;14501;52.282;10.560;2022-12-18T16:16:58;21.98;;;12.57;;
26946;SDS011;14501;52.282;10.560;2022-12-18T16:19:26;21.38;;;10.07;;
26946;SDS011;14501;52.282;10.560;2022-12-18T16:21:52;18.85;;;9.52;;
26946;SDS011;14501;52.282;10.560;2022-12-18T16:24:21;15.77;;;8.95;;
26946;SDS011;14501;52.282;10.560;2022-12-18T16:26:48;17.83;;;9.05;;
26946;SDS011;14501;52.282;10.560;2022-12-18T16:29:19;22.15;;;10.23;;
26946;SDS011;14501;52.282;10.560;2022-12-18T16:31:51;14.35;;;8.73;;
26946;SDS011;14501;52.282;10.560;2022-12-18T16:34:19;17.80;;;9.55;;
26946;SDS011;14501;52.282;10.560;2022-12-18T16:36:51;15.02;;;8.70;;
26946;SDS011;14501;52.282;10.560;2022-12-18T16:39:19;18.70;;;8.73;;